Time;durP1;ratioP1;P1;durP2;ratioP2;P2;SDS_P1;SDS_P2;PMS_P1;PMS_P2;Temp;Humidity;BMP_temperature;BMP_pressure;BME280_temperature;BME280_humidity;BME280_pressure;Samples;Min_cycle;Max_cycle;Signal;HPM_P1;HPM_P2
2023/01/29 00:01:17;;;;;;;107.78;58.33;;;2.60;1.00;;;;;;4967364;28;20136;-78
2023/01/29 00:03:44;;;;;;;104.00;56.20;;;2.60;1.00;;;;;;4963937;29;20111;-76
2023/01/29 00:06:13;;;;;;;101.20;57.00;;;2.50;1.00;;;;;;4962210;28;20047;-78
2023/01/29 00:08:40;;;;;;;98.55;55.17;;;2.60;1.00;;;;;;4958128;28;20075;-78
2023/01/29 00:11:09;;;;;;;103.78;55.08;;;2.60;1.00;;;;;;4940320;29;20554;-77
2023/01/29 00:13:37;;;;;;;99.10;54.00;;;2.50;1.00;;;;;;4955025;28;20047;-78
2023/01/29 00:16:06;;;;;;;112.70;55.35;;;2.60;1.00;;;;;;4967924;28;20109;-77
2023/01/29 00:18:33;;;;;;;104.78;52.80;;;2.50;1.00;;;;;;4968544;29;20047;-78
2023/01/29 00:21:01;;;;;;;96.43;50.45;;;2.60;1.00;;;;;;4957199;28;20039;-77
2023/01/29 00:23:31;;;;;;;102.63;53.38;;;2.60;1.00;;;;;;4957990;29;20054;-76
2023/01/29 00:26:00;;;;;;;103.10;55.47;;;2.50;1.00;;;;;;4963423;28;20061;-77
2023/01/29 00:28:27;;;;;;;109.03;54.20;;;2.60;1.00;;;;;;4956533;29;20043;-76
2023/01/29 00:30:57;;;;;;;102.25;54.63;;;2.60;1.00;;;;;;4953212;28;20504;-76
2023/01/29 00:33:24;;;;;;;108.03;53.28;;;2.60;1.00;;;;;;4954182;28;20054;-76
2023/01/29 00:35:52;;;;;;;99.80;55.05;;;2.50;1.00;;;;;;4936211;29;20047;-76
2023/01/29 00:38:20;;;;;;;104.55;54.47;;;2.60;1.00;;;;;;4953696;28;20051;-76
2023/01/29 00:46:18;;;;;;;107.57;51.38;;;2.60;1.00;;;;;;4955498;28;20054;-76
2023/01/29 00:48:46;;;;;;;97.88;50.38;;;2.50;1.00;;;;;;4954755;28;20028;-78
2023/01/29 00:51:14;;;;;;;100.15;53.10;;;2.40;1.00;;;;;;4977438;28;20053;-78
2023/01/29 00:53:41;;;;;;;97.15;49.25;;;2.40;1.00;;;;;;4949999;29;20558;-75
2023/01/29 00:56:10;;;;;;;92.43;48.72;;;2.40;87.50;;;;;;4955329;28;20046;-77
2023/01/29 00:58:37;;;;;;;95.72;48.25;;;2.40;99.90;;;;;;4937369;29;20040;-78
2023/01/29 01:01:07;;;;;;;94.70;50.00;;;2.30;1.00;;;;;;4954374;28;20043;-76
2023/01/29 01:03:41;;;;;;;96.40;50.70;;;2.30;10.60;;;;;;4954018;28;20051;-77
2023/01/29 01:06:10;;;;;;;92.95;49.67;;;2.20;99.90;;;;;;4951569;28;20055;-77
2023/01/29 01:11:24;;;;;;;97.82;55.28;;;2.10;99.90;;;;;;4952236;29;20194;-80
2023/01/29 01:13:51;;;;;;;100.78;56.90;;;2.20;99.90;;;;;;4935420;29;20051;-78
2023/01/29 01:16:20;;;;;;;109.55;58.22;;;2.20;99.90;;;;;;4953765;28;20058;-79
2023/01/29 01:18:48;;;;;;;102.90;57.65;;;2.10;99.90;;;;;;4953130;28;20055;-79
2023/01/29 01:21:15;;;;;;;98.53;57.17;;;2.10;1.00;;;;;;4950545;28;20054;-78
2023/01/29 01:23:43;;;;;;;110.88;59.15;;;2.10;1.00;;;;;;4934906;29;20087;-79
2023/01/29 01:26:11;;;;;;;103.43;59.00;;;2.10;1.00;;;;;;4934609;29;20898;-79
2023/01/29 01:28:40;;;;;;;101.18;58.00;;;2.10;1.00;;;;;;4943366;29;20082;-79
2023/01/29 01:31:11;;;;;;;95.85;55.13;;;2.20;1.00;;;;;;4951598;28;20047;-78
2023/01/29 01:33:38;;;;;;;104.82;57.85;;;2.20;1.00;;;;;;4953720;28;20051;-78
2023/01/29 01:36:08;;;;;;;96.15;55.20;;;2.10;1.00;;;;;;4937049;29;20082;-79
2023/01/29 01:38:43;;;;;;;100.20;56.55;;;2.20;1.00;;;;;;4955802;28;20490;-77
2023/01/29 01:41:11;;;;;;;97.68;55.22;;;2.30;1.00;;;;;;4956704;29;20047;-78
2023/01/29 01:43:52;;;;;;;100.50;57.03;;;2.30;1.00;;;;;;4938813;29;20114;-77
2023/01/29 01:46:21;;;;;;;106.35;62.17;;;2.30;99.90;;;;;;4937812;29;20118;-77
2023/01/29 01:48:53;;;;;;;100.13;57.35;;;2.30;99.90;;;;;;4954225;28;20054;-79
2023/01/29 01:51:22;;;;;;;97.95;56.72;;;2.40;99.90;;;;;;4954844;28;20040;-77
2023/01/29 01:53:55;;;;;;;93.55;54.60;;;2.40;99.90;;;;;;4954105;29;20048;-78
2023/01/29 01:56:28;;;;;;;96.10;54.70;;;2.40;99.90;;;;;;4938951;29;20059;-76
2023/01/29 01:59:09;;;;;;;92.40;51.22;;;2.50;99.90;;;;;;4938042;28;20055;-78
2023/01/29 02:01:41;;;;;;;95.57;53.55;;;2.50;1.00;;;;;;4954332;29;20074;-79
2023/01/29 02:09:51;;;;;;;90.28;50.55;;;2.60;1.00;;;;;;4957587;28;20047;-78
2023/01/29 02:12:20;;;;;;;87.80;48.03;;;2.60;1.00;;;;;;4941734;29;20075;-79
2023/01/29 02:14:51;;;;;;;88.15;47.15;;;2.50;1.00;;;;;;4953149;29;20039;-78
2023/01/29 02:17:22;;;;;;;98.53;52.85;;;2.60;1.00;;;;;;4974468;28;20051;-79
2023/01/29 02:20:00;;;;;;;87.60;45.80;;;2.70;1.00;;;;;;4965417;29;20039;-77
2023/01/29 02:22:55;;;;;;;86.63;47.30;;;2.60;1.00;;;;;;4964461;29;20027;-79
2023/01/29 02:25:36;;;;;;;;;;;2.60;1.00;;;;;;4969606;29;20646;-77
2023/01/29 02:28:37;;;;;;;90.80;48.65;;;2.60;1.00;;;;;;4968725;28;19922;-76
2023/01/29 02:31:12;;;;;;;84.57;47.90;;;2.50;1.00;;;;;;4960516;28;20139;-77
2023/01/29 02:33:49;;;;;;;86.20;45.03;;;2.50;1.00;;;;;;4962920;28;20027;-78
2023/01/29 02:36:28;;;;;;;81.68;45.72;;;2.50;1.00;;;;;;4979345;28;20292;-78
2023/01/29 02:39:01;;;;;;;85.38;45.72;;;2.50;1.00;;;;;;4962957;28;20055;-76
2023/01/29 02:41:33;;;;;;;91.90;45.58;;;2.40;1.00;;;;;;4978656;28;20043;-78
2023/01/29 02:44:10;;;;;;;82.60;45.42;;;2.40;1.00;;;;;;4974704;28;20471;-76
2023/01/29 02:46:45;;;;;;;87.60;45.83;;;2.40;1.00;;;;;;4941375;29;20058;-77
2023/01/29 02:49:22;;;;;;;85.00;45.33;;;2.40;1.00;;;;;;4958467;29;20097;-77
2023/01/29 02:51:59;;;;;;;88.03;47.65;;;2.40;1.00;;;;;;4959947;29;20031;-77
2023/01/29 02:54:37;;;;;;;86.35;46.50;;;2.40;1.00;;;;;;4951937;28;20070;-79
2023/01/29 02:57:15;;;;;;;83.93;46.20;;;2.30;1.00;;;;;;4955256;29;20494;-78
2023/01/29 02:59:49;;;;;;;87.13;47.60;;;2.40;58.00;;;;;;4961136;29;20050;-76
2023/01/29 03:02:21;;;;;;;85.18;44.90;;;2.40;1.00;;;;;;4957229;29;20055;-78
2023/01/29 03:04:55;;;;;;;86.63;45.65;;;2.40;28.60;;;;;;4966438;28;20078;-78
2023/01/29 03:07:41;;;;;;;80.63;44.55;;;2.40;1.00;;;;;;4933136;28;20431;-79
2023/01/29 03:10:17;;;;;;;79.25;43.45;;;2.40;1.00;;;;;;4955298;28;20051;-77
2023/01/29 03:12:47;;;;;;;82.20;46.13;;;2.40;1.00;;;;;;4939048;29;20047;-77
2023/01/29 03:15:23;;;;;;;85.32;46.47;;;2.40;1.00;;;;;;4954691;28;20089;-78
2023/01/29 03:18:11;;;;;;;78.97;43.88;;;2.30;1.00;;;;;;4952111;29;20085;-76
2023/01/29 03:20:46;;;;;;;77.90;43.00;;;2.40;1.00;;;;;;4953881;29;20070;-76
2023/01/29 03:23:23;;;;;;;73.95;42.95;;;2.40;1.00;;;;;;4936848;29;20074;-78
2023/01/29 03:34:22;;;;;;;85.18;49.08;;;2.50;1.00;;;;;;4941556;29;20074;-78
2023/01/29 03:36:55;;;;;;;83.25;49.08;;;2.50;1.00;;;;;;4977643;28;20078;-78
2023/01/29 03:39:28;;;;;;;80.15;47.58;;;2.40;1.00;;;;;;4976803;28;20043;-79
2023/01/29 03:42:02;;;;;;;78.97;47.92;;;2.50;1.00;;;;;;4976024;28;20039;-77
2023/01/29 03:44:39;;;;;;;85.40;51.20;;;2.60;1.00;;;;;;4976482;28;20046;-76
2023/01/29 03:47:18;;;;;;;78.55;47.67;;;2.60;1.00;;;;;;4960660;28;20078;-78
2023/01/29 03:49:57;;;;;;;81.78;47.35;;;2.60;1.00;;;;;;4978079;28;20023;-79
2023/01/29 03:52:28;;;;;;;79.55;47.83;;;2.70;1.00;;;;;;4940476;29;20051;-80
2023/01/29 03:55:05;;;;;;;76.32;45.17;;;2.60;99.90;;;;;;4952643;28;20597;-78
2023/01/29 03:57:39;;;;;;;76.97;45.63;;;2.50;99.90;;;;;;4936407;28;20047;-78
2023/01/29 04:00:16;;;;;;;75.68;46.65;;;2.40;1.00;;;;;;4969995;28;20054;-81
2023/01/29 04:03:08;;;;;;;73.57;45.33;;;2.40;1.00;;;;;;4964027;28;20043;-79
2023/01/29 04:05:43;;;;;;;79.15;46.13;;;2.40;1.00;;;;;;4956921;28;20039;-76
2023/01/29 04:08:25;;;;;;;80.53;47.13;;;2.50;1.00;;;;;;4937721;29;20138;-77
2023/01/29 04:10:57;;;;;;;76.65;44.60;;;2.50;1.00;;;;;;4953309;28;20138;-76
2023/01/29 04:13:26;;;;;;;70.05;42.20;;;2.50;99.90;;;;;;4953161;28;20043;-77
2023/01/29 04:15:58;;;;;;;75.25;43.55;;;2.50;1.00;;;;;;4936713;29;20512;-78
2023/01/29 04:18:56;;;;;;;76.65;42.88;;;2.50;99.90;;;;;;4946612;28;20051;-77
2023/01/29 04:21:31;;;;;;;76.88;45.03;;;2.50;99.90;;;;;;4935141;29;20048;-77
2023/01/29 04:23:59;;;;;;;81.68;45.30;;;2.50;99.90;;;;;;4936131;29;20043;-78
2023/01/29 04:26:44;;;;;;;75.80;42.17;;;2.50;99.90;;;;;;4936647;28;20111;-77
2023/01/29 04:29:25;;;;;;;75.25;42.03;;;2.50;99.90;;;;;;4951860;28;20090;-77
2023/01/29 04:32:15;;;;;;;82.70;43.90;;;2.50;99.90;;;;;;4951264;28;20047;-79
2023/01/29 04:34:58;;;;;;;75.25;41.65;;;2.50;99.90;;;;;;4950970;29;20428;-79
2023/01/29 04:37:36;;;;;;;78.78;40.67;;;2.60;1.00;;;;;;4951482;28;20043;-78
2023/01/29 04:40:14;;;;;;;73.35;40.20;;;2.60;99.90;;;;;;4952981;28;20073;-78
2023/01/29 04:42:49;;;;;;;73.20;39.28;;;2.70;99.90;;;;;;4952203;28;20071;-78
2023/01/29 04:45:23;;;;;;;80.20;41.47;;;2.60;99.90;;;;;;4952530;28;20039;-78
2023/01/29 04:48:00;;;;;;;79.72;40.50;;;2.60;99.90;;;;;;4952354;28;20043;-79
2023/01/29 04:50:38;;;;;;;76.45;41.90;;;2.60;99.90;;;;;;4952340;28;20045;-80
2023/01/29 04:53:12;;;;;;;74.03;41.10;;;2.60;99.90;;;;;;4959927;28;20039;-79
2023/01/29 04:55:44;;;;;;;81.82;45.13;;;2.60;99.90;;;;;;4965785;28;20047;-79
2023/01/29 04:58:16;;;;;;;79.00;43.70;;;2.60;99.90;;;;;;4948879;29;20512;-78
2023/01/29 05:00:46;;;;;;;75.03;42.15;;;2.50;99.90;;;;;;4956442;28;20098;-77
2023/01/29 05:03:16;;;;;;;76.32;41.55;;;2.50;99.90;;;;;;4951603;28;20117;-77
2023/01/29 05:05:47;;;;;;;77.13;41.15;;;2.50;99.90;;;;;;4952305;28;20110;-77
2023/01/29 05:08:19;;;;;;;71.38;40.25;;;2.50;99.90;;;;;;4952467;28;20053;-77
2023/01/29 05:10:48;;;;;;;74.30;40.10;;;2.60;99.90;;;;;;4951826;28;20045;-76
2023/01/29 05:13:18;;;;;;;74.88;41.70;;;2.60;99.90;;;;;;4956585;28;20047;-78
2023/01/29 05:15:49;;;;;;;77.13;41.72;;;2.70;99.90;;;;;;4959004;28;20071;-77
2023/01/29 05:18:17;;;;;;;76.55;42.80;;;2.70;99.90;;;;;;4957102;28;20066;-77
2023/01/29 05:20:48;;;;;;;77.40;42.45;;;2.70;99.90;;;;;;4950905;28;20065;-77
2023/01/29 05:23:16;;;;;;;78.53;44.05;;;2.80;99.90;;;;;;4953119;28;20118;-79
2023/01/29 05:25:45;;;;;;;77.07;43.35;;;2.80;99.90;;;;;;4956322;28;20440;-76
2023/01/29 05:28:15;;;;;;;73.60;41.45;;;2.80;99.90;;;;;;4952981;28;20566;-76
2023/01/29 05:30:45;;;;;;;78.85;41.85;;;2.80;99.90;;;;;;4952709;28;20393;-78
2023/01/29 05:33:14;;;;;;;75.22;42.85;;;2.80;99.90;;;;;;4952050;28;20122;-78
2023/01/29 05:35:42;;;;;;;77.85;41.75;;;2.80;99.90;;;;;;4961584;28;20043;-79
2023/01/29 05:38:11;;;;;;;75.50;41.67;;;2.80;99.90;;;;;;4951482;28;20515;-79
2023/01/29 05:40:39;;;;;;;79.95;43.60;;;2.80;99.90;;;;;;4968515;28;20045;-78
2023/01/29 05:43:13;;;;;;;81.55;42.88;;;2.80;99.90;;;;;;4956915;28;20479;-78
2023/01/29 05:45:41;;;;;;;74.10;42.42;;;2.80;99.90;;;;;;4954626;28;20415;-77
2023/01/29 05:48:08;;;;;;;75.72;42.05;;;2.70;99.90;;;;;;4952435;28;20051;-78
2023/01/29 05:50:36;;;;;;;73.68;41.83;;;2.80;99.90;;;;;;4934223;29;20122;-78
2023/01/29 05:53:04;;;;;;;78.60;43.20;;;2.80;99.90;;;;;;4953396;28;20050;-78
2023/01/29 05:55:34;;;;;;;75.97;41.75;;;2.80;99.90;;;;;;4936843;29;20051;-77
2023/01/29 05:58:02;;;;;;;75.32;41.85;;;2.80;99.90;;;;;;4951981;28;20122;-78
2023/01/29 06:00:29;;;;;;;77.72;43.38;;;2.70;99.90;;;;;;4950871;28;20435;-78
2023/01/29 06:02:58;;;;;;;72.82;41.72;;;2.70;99.90;;;;;;4952288;28;20130;-78
2023/01/29 06:05:26;;;;;;;74.00;42.13;;;2.70;99.90;;;;;;4951075;28;20063;-79
2023/01/29 06:07:53;;;;;;;77.40;41.97;;;2.80;99.90;;;;;;4955925;29;20147;-78
2023/01/29 06:10:21;;;;;;;78.22;44.03;;;2.70;99.90;;;;;;4950838;28;20098;-77
2023/01/29 06:12:50;;;;;;;79.05;44.22;;;2.80;99.90;;;;;;4950941;28;20143;-77
2023/01/29 06:15:18;;;;;;;80.32;44.25;;;2.80;99.90;;;;;;4951824;28;20098;-77
2023/01/29 06:17:46;;;;;;;81.65;44.15;;;2.90;99.90;;;;;;4950074;28;20182;-79
2023/01/29 06:20:14;;;;;;;86.60;46.92;;;2.80;99.90;;;;;;4951322;28;20392;-77
2023/01/29 06:22:41;;;;;;;82.70;45.70;;;2.70;99.90;;;;;;4940769;29;20059;-76
2023/01/29 06:25:09;;;;;;;80.00;45.95;;;2.60;99.90;;;;;;4970762;28;20058;-78
2023/01/29 06:27:37;;;;;;;78.65;45.95;;;2.60;99.90;;;;;;4968216;28;20107;-79
2023/01/29 06:30:07;;;;;;;78.13;45.92;;;2.70;99.90;;;;;;4952598;28;20122;-78
2023/01/29 06:32:35;;;;;;;78.50;48.22;;;2.70;99.90;;;;;;4953636;28;20507;-78
2023/01/29 06:35:03;;;;;;;76.97;48.80;;;2.70;99.90;;;;;;4952341;28;20393;-78
2023/01/29 06:37:31;;;;;;;84.20;49.25;;;2.80;99.90;;;;;;4952086;28;20079;-78
2023/01/29 06:39:59;;;;;;;83.68;48.70;;;2.80;99.90;;;;;;4952177;28;20039;-79
2023/01/29 06:42:28;;;;;;;77.63;47.10;;;2.90;99.90;;;;;;4952303;28;20031;-78
2023/01/29 06:44:56;;;;;;;72.32;46.03;;;2.90;99.90;;;;;;4937447;29;20120;-79
2023/01/29 06:47:27;;;;;;;81.55;49.05;;;2.90;59.60;;;;;;4942142;29;20138;-79
2023/01/29 06:49:55;;;;;;;73.60;46.47;;;2.90;48.60;;;;;;4958236;28;20054;-77
2023/01/29 06:52:24;;;;;;;82.72;46.38;;;2.90;51.40;;;;;;4957036;28;20052;-77
2023/01/29 06:54:51;;;;;;;75.88;45.92;;;2.90;73.30;;;;;;4956193;28;20047;-81
2023/01/29 06:57:19;;;;;;;78.68;47.30;;;2.90;22.20;;;;;;4959349;28;20059;-78
2023/01/29 06:59:46;;;;;;;79.38;47.97;;;2.80;45.10;;;;;;4956123;28;20046;-77
2023/01/29 07:02:16;;;;;;;77.65;46.67;;;2.70;93.40;;;;;;4941889;29;20043;-77
2023/01/29 07:04:51;;;;;;;81.78;46.92;;;2.70;99.90;;;;;;4964781;28;20507;-76
2023/01/29 07:07:20;;;;;;;82.13;47.30;;;2.80;99.90;;;;;;4953243;28;20047;-77
2023/01/29 07:09:48;;;;;;;83.40;48.13;;;2.80;99.90;;;;;;4958780;28;20039;-78
2023/01/29 07:12:32;;;;;;;87.05;48.22;;;2.90;99.90;;;;;;4962100;28;20080;-78
2023/01/29 07:15:00;;;;;;;85.28;47.08;;;2.90;99.90;;;;;;4954807;29;20055;-79
2023/01/29 07:17:27;;;;;;;84.22;47.28;;;2.90;99.90;;;;;;4972859;28;20055;-78
2023/01/29 07:19:56;;;;;;;85.57;45.65;;;2.90;93.90;;;;;;4974425;28;20054;-78
2023/01/29 07:22:24;;;;;;;87.72;47.10;;;2.90;99.90;;;;;;4961099;28;20075;-77
2023/01/29 07:24:52;;;;;;;84.18;48.42;;;3.00;95.70;;;;;;4955403;28;20070;-77
2023/01/29 07:27:23;;;;;;;85.75;46.67;;;2.90;89.10;;;;;;4954866;28;20039;-76
2023/01/29 07:29:50;;;;;;;86.30;47.20;;;2.90;66.80;;;;;;4954779;28;20069;-77
2023/01/29 07:32:18;;;;;;;87.10;47.03;;;2.80;98.70;;;;;;4955006;28;20514;-79
2023/01/29 07:34:45;;;;;;;78.57;45.78;;;2.80;99.90;;;;;;4955264;28;20464;-77
2023/01/29 07:37:16;;;;;;;82.93;48.13;;;2.80;99.90;;;;;;4955086;28;20048;-76
2023/01/29 07:39:46;;;;;;;86.15;48.97;;;2.90;99.90;;;;;;4954795;28;20047;-77
2023/01/29 07:42:14;;;;;;;86.30;48.10;;;3.00;73.80;;;;;;4955015;28;20047;-79
2023/01/29 07:44:41;;;;;;;91.68;50.83;;;3.00;38.50;;;;;;4957460;28;20051;-76
2023/01/29 07:47:10;;;;;;;86.93;48.33;;;3.00;19.20;;;;;;4963861;28;20138;-78
2023/01/29 07:49:37;;;;;;;86.30;50.80;;;3.00;1.00;;;;;;4956069;28;20110;-78
2023/01/29 07:52:05;;;;;;;83.95;48.08;;;3.00;42.80;;;;;;4952644;28;20051;-78
2023/01/29 07:54:34;;;;;;;86.80;47.40;;;3.10;32.70;;;;;;4954856;28;20466;-80
2023/01/29 07:57:02;;;;;;;85.75;48.65;;;3.10;1.00;;;;;;4936741;28;20039;-77
2023/01/29 07:59:29;;;;;;;93.40;51.85;;;3.10;1.00;;;;;;4954482;28;20046;-78
2023/01/29 08:01:57;;;;;;;88.72;48.97;;;3.10;13.80;;;;;;4952113;28;20115;-78
2023/01/29 08:04:25;;;;;;;84.85;48.67;;;3.20;9.50;;;;;;4953653;28;20053;-75
2023/01/29 08:06:53;;;;;;;92.57;50.80;;;3.20;1.00;;;;;;4954712;29;20082;-76
2023/01/29 08:09:20;;;;;;;88.38;48.92;;;3.10;1.00;;;;;;4954133;28;20073;-74
2023/01/29 08:11:49;;;;;;;87.97;51.20;;;3.00;9.40;;;;;;4954651;28;20047;-74
2023/01/29 08:14:16;;;;;;;87.13;49.85;;;2.80;96.40;;;;;;4955161;28;20134;-76
2023/01/29 08:16:44;;;;;;;93.57;50.35;;;2.80;99.90;;;;;;4954891;28;20040;-75
2023/01/29 08:19:11;;;;;;;88.35;49.97;;;2.80;99.90;;;;;;4936063;29;20066;-76
2023/01/29 08:21:39;;;;;;;90.25;51.13;;;2.80;99.90;;;;;;4951978;28;20078;-73
2023/01/29 08:24:07;;;;;;;96.68;51.95;;;2.90;99.90;;;;;;4952690;28;20507;-78
2023/01/29 08:26:34;;;;;;;87.90;50.65;;;2.70;99.90;;;;;;4953607;29;20476;-75
2023/01/29 08:29:03;;;;;;;90.65;51.72;;;2.70;99.90;;;;;;4953279;28;20054;-74
2023/01/29 08:31:32;;;;;;;96.70;55.35;;;2.60;99.90;;;;;;4953298;29;20047;-75
2023/01/29 08:33:59;;;;;;;98.65;58.10;;;2.60;99.90;;;;;;4953426;28;20047;-76
2023/01/29 08:36:27;;;;;;;95.07;58.88;;;2.70;1.00;;;;;;4953785;28;20046;-77
2023/01/29 08:38:54;;;;;;;95.40;60.08;;;2.80;99.90;;;;;;4936342;28;20051;-77
2023/01/29 08:41:21;;;;;;;98.10;62.17;;;2.90;99.90;;;;;;4951487;28;20055;-77
2023/01/29 08:43:51;;;;;;;101.68;61.13;;;2.90;99.90;;;;;;4953995;28;20035;-77
2023/01/29 08:46:20;;;;;;;99.47;59.50;;;2.90;99.90;;;;;;4953886;29;20052;-74
2023/01/29 08:48:47;;;;;;;100.72;61.33;;;2.90;99.90;;;;;;4959922;28;20027;-76
2023/01/29 08:51:15;;;;;;;102.97;62.63;;;2.90;99.90;;;;;;4956368;29;20333;-75
2023/01/29 08:53:43;;;;;;;99.15;58.53;;;3.00;99.90;;;;;;4973309;29;20063;-78
2023/01/29 08:56:11;;;;;;;94.38;57.92;;;3.00;99.90;;;;;;4972208;28;20043;-74
2023/01/29 08:58:38;;;;;;;98.07;59.60;;;3.00;99.90;;;;;;4971112;28;20074;-74
2023/01/29 09:01:07;;;;;;;101.18;62.60;;;2.90;99.90;;;;;;4968920;29;20047;-78
2023/01/29 09:03:39;;;;;;;100.22;59.78;;;2.80;99.90;;;;;;4973123;28;20095;-78
2023/01/29 09:06:08;;;;;;;100.93;60.65;;;2.80;99.90;;;;;;4974972;28;20051;-75
2023/01/29 09:08:36;;;;;;;101.53;60.88;;;2.90;99.90;;;;;;4972867;28;20039;-75
2023/01/29 09:11:05;;;;;;;101.65;60.63;;;2.90;99.90;;;;;;4969453;28;20134;-77
2023/01/29 09:13:33;;;;;;;99.43;56.70;;;2.90;99.90;;;;;;4962998;28;20043;-75
2023/01/29 09:16:01;;;;;;;96.18;55.88;;;2.90;99.90;;;;;;4962688;28;20130;-76
2023/01/29 09:18:30;;;;;;;90.15;53.50;;;3.00;99.90;;;;;;4965012;28;20138;-75
2023/01/29 09:21:00;;;;;;;87.32;55.03;;;3.10;99.90;;;;;;4967247;28;20055;-76
2023/01/29 09:23:31;;;;;;;90.47;55.20;;;3.00;80.00;;;;;;4964482;28;20050;-77
2023/01/29 09:26:00;;;;;;;89.15;53.67;;;3.00;99.90;;;;;;4962443;28;20103;-77
2023/01/29 09:28:28;;;;;;;98.10;53.42;;;3.00;99.90;;;;;;4963013;28;20050;-76
2023/01/29 09:30:56;;;;;;;96.70;53.35;;;3.10;90.60;;;;;;4957117;28;20039;-76
2023/01/29 09:33:25;;;;;;;92.45;53.00;;;3.20;97.90;;;;;;4941596;29;20043;-74
2023/01/29 09:35:52;;;;;;;99.60;53.22;;;3.30;40.40;;;;;;4958893;28;20118;-73
2023/01/29 09:38:22;;;;;;;94.25;54.15;;;3.30;1.00;;;;;;4960167;28;20039;-76
2023/01/29 09:40:58;;;;;;;96.05;52.85;;;3.40;1.00;;;;;;4936859;29;20051;-77
2023/01/29 09:43:39;;;;;;;92.28;51.92;;;3.20;1.00;;;;;;4951503;29;20047;-75
2023/01/29 09:46:15;;;;;;;98.53;52.35;;;3.00;8.40;;;;;;4956932;29;20158;-76
2023/01/29 09:48:44;;;;;;;91.18;48.78;;;3.00;81.00;;;;;;4965722;29;20134;-78
2023/01/29 09:51:25;;;;;;;91.10;50.55;;;2.90;62.80;;;;;;4947168;29;20042;-74
2023/01/29 09:54:03;;;;;;;90.05;51.20;;;3.00;99.90;;;;;;4960329;28;20115;-77
2023/01/29 09:56:32;;;;;;;95.47;52.22;;;3.10;99.90;;;;;;4961982;28;20074;-74
2023/01/29 09:59:00;;;;;;;87.82;49.58;;;3.20;93.60;;;;;;4959840;28;20046;-76
2023/01/29 10:01:36;;;;;;;97.47;55.17;;;3.30;42.40;;;;;;4959892;29;20047;-76
2023/01/29 10:04:59;;;;;;;95.50;52.80;;;3.20;7.40;;;;;;4958569;28;20043;-75
2023/01/29 10:08:01;;;;;;;93.57;52.80;;;3.20;1.00;;;;;;4942172;29;20134;-74
2023/01/29 10:10:44;;;;;;;99.78;54.35;;;3.20;27.10;;;;;;4955487;28;20058;-75
2023/01/29 10:13:21;;;;;;;107.65;58.70;;;3.20;7.70;;;;;;4957705;29;20078;-73
2023/01/29 10:16:12;;;;;;;93.95;52.67;;;3.20;28.30;;;;;;4961700;29;20039;-75
2023/01/29 10:19:11;;;;;;;94.43;52.35;;;3.30;45.90;;;;;;4961861;29;20499;-75
2023/01/29 10:21:57;;;;;;;90.00;48.40;;;3.50;1.00;;;;;;4957658;28;20152;-78
2023/01/29 10:24:36;;;;;;;91.30;51.70;;;3.60;1.00;;;;;;4969735;28;20039;-76
2023/01/29 10:27:15;;;;;;;91.25;49.20;;;3.70;1.00;;;;;;4965449;28;20046;-75
2023/01/29 10:29:45;;;;;;;80.78;46.58;;;3.70;1.00;;;;;;4959246;29;20051;-74
2023/01/29 10:32:17;;;;;;;82.45;46.15;;;3.70;1.00;;;;;;4943973;29;20050;-73
2023/01/29 10:34:50;;;;;;;74.22;41.33;;;3.70;1.00;;;;;;4961928;29;20040;-75
2023/01/29 10:37:23;;;;;;;82.40;44.45;;;3.70;1.00;;;;;;4957645;28;20051;-74
2023/01/29 10:39:51;;;;;;;85.80;46.17;;;3.60;1.00;;;;;;4960431;28;20047;-74
2023/01/29 10:42:28;;;;;;;87.78;48.90;;;3.70;1.00;;;;;;4958538;28;20047;-76
2023/01/29 10:45:08;;;;;;;85.95;49.40;;;3.90;1.00;;;;;;4960947;28;20055;-74
2023/01/29 10:48:03;;;;;;;92.53;49.10;;;3.90;1.00;;;;;;4960285;28;20095;-73
2023/01/29 10:50:47;;;;;;;90.78;49.95;;;3.90;1.00;;;;;;4942290;29;20047;-75
2023/01/29 10:53:30;;;;;;;89.72;46.92;;;4.00;1.00;;;;;;4960059;28;20047;-75
2023/01/29 10:56:09;;;;;;;83.75;46.17;;;4.00;1.00;;;;;;4959371;28;20039;-73
2023/01/29 10:58:42;;;;;;;85.25;46.13;;;4.00;1.00;;;;;;4960574;28;20063;-74
2023/01/29 11:01:12;;;;;;;85.70;47.83;;;4.10;1.00;;;;;;4957638;28;20041;-76
2023/01/29 11:03:40;;;;;;;86.90;45.55;;;4.10;1.00;;;;;;4960963;28;20054;-73
2023/01/29 11:06:24;;;;;;;85.45;47.35;;;4.00;1.00;;;;;;4964193;28;20047;-79
2023/01/29 11:09:24;;;;;;;85.03;46.90;;;4.00;1.00;;;;;;4960616;28;20407;-80
2023/01/29 11:11:57;;;;;;;83.72;47.67;;;4.10;1.00;;;;;;4948647;29;20043;-81
2023/01/29 11:14:33;;;;;;;89.60;49.20;;;4.10;1.00;;;;;;4959383;28;20051;-75
2023/01/29 11:17:01;;;;;;;77.63;45.33;;;4.10;1.00;;;;;;4958809;28;20071;-75
2023/01/29 11:19:40;;;;;;;76.13;44.88;;;4.10;1.00;;;;;;4964612;28;20063;-75
2023/01/29 11:22:14;;;;;;;79.20;44.80;;;4.20;1.00;;;;;;4969032;28;20054;-76
2023/01/29 11:24:42;;;;;;;74.65;39.63;;;4.30;1.00;;;;;;4968203;28;20039;-76
2023/01/29 11:27:22;;;;;;;75.75;41.72;;;4.40;1.00;;;;;;4966498;29;20494;-76
2023/01/29 11:29:52;;;;;;;80.80;43.63;;;4.40;1.00;;;;;;4955084;28;20507;-76
2023/01/29 11:32:26;;;;;;;76.78;41.47;;;4.60;1.00;;;;;;4955955;28;20138;-77
2023/01/29 11:34:58;;;;;;;74.32;42.25;;;4.60;1.00;;;;;;4955848;28;20051;-76
2023/01/29 11:37:35;;;;;;;73.93;41.55;;;4.50;1.00;;;;;;4955790;28;20510;-76
2023/01/29 11:40:27;;;;;;;72.82;38.78;;;4.60;1.00;;;;;;4962748;28;20448;-77
2023/01/29 11:42:56;;;;;;;72.70;39.70;;;4.70;1.00;;;;;;4955298;28;20054;-76
2023/01/29 11:45:31;;;;;;;76.32;42.92;;;4.60;1.00;;;;;;4954361;28;20109;-76
2023/01/29 11:47:59;;;;;;;75.72;41.95;;;4.60;1.00;;;;;;4954465;29;20043;-76
2023/01/29 11:50:28;;;;;;;77.32;42.50;;;4.70;1.00;;;;;;4952627;28;20219;-77
2023/01/29 11:52:56;;;;;;;71.50;38.38;;;4.70;1.00;;;;;;4955019;28;20102;-76
2023/01/29 11:55:25;;;;;;;76.82;40.15;;;4.60;1.00;;;;;;4937232;29;20043;-77
2023/01/29 11:57:59;;;;;;;68.35;38.70;;;4.60;1.00;;;;;;4954604;28;20043;-77
2023/01/29 12:00:31;;;;;;;75.63;38.33;;;4.50;1.00;;;;;;4936149;29;20070;-76
2023/01/29 12:03:06;;;;;;;72.05;39.45;;;4.40;1.00;;;;;;4956571;28;20047;-78
2023/01/29 12:05:34;;;;;;;75.22;41.33;;;4.20;1.00;;;;;;4957435;28;20058;-79
2023/01/29 12:08:03;;;;;;;78.82;41.13;;;4.20;1.00;;;;;;4954126;28;20043;-76
2023/01/29 12:10:34;;;;;;;79.32;42.90;;;4.10;1.00;;;;;;4960334;28;20057;-77
2023/01/29 12:13:06;;;;;;;83.75;46.38;;;4.10;1.00;;;;;;4972649;28;20046;-76
2023/01/29 12:15:35;;;;;;;77.80;43.80;;;4.20;1.00;;;;;;4972754;28;20042;-75
2023/01/29 12:18:11;;;;;;;83.22;44.50;;;4.10;1.00;;;;;;4962302;28;20047;-77
2023/01/29 12:20:44;;;;;;;83.78;45.40;;;4.10;1.00;;;;;;4966243;28;20070;-75
2023/01/29 12:23:29;;;;;;;88.47;48.20;;;4.10;1.00;;;;;;4955051;28;20047;-76
2023/01/29 12:26:02;;;;;;;88.10;48.72;;;4.10;1.00;;;;;;4953280;28;20495;-78
2023/01/29 12:28:44;;;;;;;83.65;47.22;;;4.10;1.00;;;;;;4936658;29;20043;-74
2023/01/29 12:31:29;;;;;;;83.85;46.00;;;4.00;1.00;;;;;;4954735;28;20150;-74
2023/01/29 12:34:04;;;;;;;83.85;46.55;;;4.00;1.00;;;;;;4954716;28;20058;-77
2023/01/29 12:36:38;;;;;;;81.15;44.05;;;3.90;1.00;;;;;;4956653;28;20487;-78
2023/01/29 12:39:06;;;;;;;82.10;49.42;;;3.90;1.00;;;;;;4955938;28;20567;-78
2023/01/29 12:41:39;;;;;;;91.82;52.20;;;3.90;1.00;;;;;;4954617;28;20547;-77
2023/01/29 12:44:13;;;;;;;93.13;55.38;;;3.90;1.00;;;;;;4952938;28;20066;-76
2023/01/29 12:46:49;;;;;;;94.53;58.10;;;3.80;1.00;;;;;;4953753;28;20047;-75
2023/01/29 12:49:23;;;;;;;101.93;60.05;;;3.80;1.00;;;;;;4953275;28;20043;-75
2023/01/29 12:51:57;;;;;;;109.78;64.60;;;3.80;1.00;;;;;;4953574;28;20039;-75
2023/01/29 12:54:35;;;;;;;99.00;60.03;;;3.80;1.00;;;;;;4954500;28;20155;-74
2023/01/29 12:57:09;;;;;;;100.72;59.40;;;3.70;1.00;;;;;;4953659;28;20455;-79
2023/01/29 12:59:42;;;;;;;103.35;60.22;;;3.60;1.00;;;;;;4953795;28;20046;-75
2023/01/29 13:02:21;;;;;;;104.97;64.50;;;3.50;1.00;;;;;;4954105;28;20049;-77
2023/01/29 13:04:56;;;;;;;102.00;59.95;;;3.50;1.00;;;;;;4939106;29;20055;-76
2023/01/29 13:07:28;;;;;;;100.20;58.95;;;3.50;1.00;;;;;;4952517;28;20052;-77
2023/01/29 13:10:09;;;;;;;109.40;64.50;;;3.50;1.00;;;;;;4963872;28;20111;-76
2023/01/29 13:12:52;;;;;;;111.53;63.65;;;3.50;1.00;;;;;;4957061;28;20555;-74
2023/01/29 13:15:27;;;;;;;111.68;62.67;;;3.70;1.00;;;;;;4953649;28;20047;-76
2023/01/29 13:18:02;;;;;;;93.30;53.38;;;3.70;1.00;;;;;;4952593;28;20110;-73
2023/01/29 13:20:32;;;;;;;91.13;54.47;;;3.80;1.00;;;;;;4951830;28;20047;-75
2023/01/29 13:23:06;;;;;;;100.45;53.03;;;3.80;1.00;;;;;;4954282;28;20131;-79
2023/01/29 13:25:34;;;;;;;98.70;52.90;;;3.80;1.00;;;;;;4953986;28;20043;-75
2023/01/29 13:28:01;;;;;;;104.55;52.25;;;3.80;1.00;;;;;;4954739;28;20035;-76
2023/01/29 13:30:31;;;;;;;102.80;52.45;;;3.80;1.00;;;;;;4953165;28;20078;-75